Nearby METAR Reports

 

KCXY - Harrisburg, Pennsylvania, USA
Distance from station: E 9mi, 14km
Updated: Tue, 27-Jul-2021 12:56am EDT
Clear
Clear
 Wind from W
Wind: W 3 mph , 6 km/h
Temperature: 75°F , 24°C
Dew Point: 63°F , 17°C
Humidity: 65%
Barometer: 29.97 inHg , 1014.9 hPa
Clouds: Clear
Visibility: 10 miles , 16 km
2021/07/27 04:56 KCXY 270456Z AUTO 26003KT 10SM CLR 24/17 A2997 RMK AO2 SLP146 T02440172 403390222
KMDT - Middletown, Pennsylvania, USA
Distance from station: E 13mi, 21km
Updated: Tue, 27-Jul-2021 12:56am EDT
Few Clouds
Few Clouds
 Wind from calm
Wind: Calm
Temperature: 77°F , 25°C
Dew Point: 66°F , 19°C
Humidity: 69%
Barometer: 29.96 inHg , 1014.6 hPa
Clouds: Few Clouds
Visibility: 10 miles , 16 km
Cloud details: Few Clouds 9500 ft
2021/07/27 04:56 KMDT 270456Z 00000KT 10SM FEW095 25/19 A2996 RMK AO2 SLP144 T02500189 403220228
 
KTHV - York, Pennsylvania, USA
Distance from station: SSE 22mi, 36km
Updated: Tue, 27-Jul-2021 12:53am EDT
Clear
Clear
 Wind from calm
Wind: Calm
Temperature: 66°F , 19°C
Dew Point: 63°F , 17°C
Humidity: 88%
Barometer: 29.98 inHg , 1015.2 hPa
Clouds: Clear
Visibility: 10 miles , 16 km
2021/07/27 04:53 KTHV 270453Z AUTO 00000KT 10SM CLR 19/17 A2998 RMK AO2 SLP151 T01890172 403220189
KMUI - Muir Aaf/Indiant, Pennsylvania, USA
Distance from station: ENE 27mi, 44km
Updated: Tue, 27-Jul-2021 12:56am EDT
Clear
Clear
 Wind from calm
Wind: Calm
Temperature: 70°F , 21°C
Dew Point: 64°F , 18°C
Humidity: 83%
Barometer: 29.97 inHg , 1014.9 hPa
Clouds: Clear
Visibility: 10 miles , 16 km
2021/07/27 04:56 KMUI 270456Z AUTO 00000KT 10SM CLR 21/18 A2997 RMK AO2 SLP148 T02070175 403170199
 
KLNS - Lancaster, Pennsylvania, USA
Distance from station: E 38mi, 62km
Updated: Tue, 27-Jul-2021 12:53am EDT
Clear
Clear
 Wind from calm
Wind: Calm
Temperature: 73°F , 23°C
Dew Point: 63°F , 17°C
Humidity: 69%
Barometer: 29.97 inHg , 1014.9 hPa
Clouds: Clear
Visibility: 10 miles , 16 km
2021/07/27 04:53 KLNS 270453Z AUTO 00000KT 10SM CLR 23/17 A2997 RMK AO2 SLP144 T02280172 403170217
KRYT - Fountain Dale, Pennsylvania, USA
Distance from station: SSW 40mi, 65km
Updated: Mon, 13-Nov-2017 7:53am EST
NOT Current
Mist, Overcast
Mist, Overcast
 Wind from calm
Wind: Calm
Temperature: 37°F , 3°C
Dew Point: 34°F , 1°C
Humidity: 87%
Barometer: 30.31 inHg , 1026.4 hPa
Summary: Mist
Clouds: Overcast
Visibility: 5 miles , 8 km
Cloud details: Overcast 700 ft
2017/11/13 12:53 KRYT 131253Z AUTO 00000KT 5SM BR OVC007 03/01 A3031 RMK AO2 SLP275 T00280011 TSNO $
 
KSEG - Selinsgrove, Pennsylvania, USA
Distance from station: N 42mi, 67km
Updated: Tue, 27-Jul-2021 12:53am EDT
Clear
Clear
 Wind from calm
Wind: Calm
Temperature: 68°F , 20°C
Dew Point: 66°F , 19°C
Humidity: 94%
Barometer: 29.98 inHg , 1015.2 hPa
Clouds: Clear
Visibility: 8 miles , 13 km
2021/07/27 04:53 KSEG 270453Z AUTO 00000KT 8SM CLR 20/19 A2998 RMK AO2 SLP148 T02000194 403170189
KDMW - Carroll Cnty, Maryland, USA
Distance from station: S 43mi, 69km
Updated: Tue, 27-Jul-2021 1:15am EDT
Clear
Clear
 Wind from calm
Wind: Calm
Temperature: 73°F , 23°C
Dew Point: 70°F , 21°C
Humidity: 89%
Barometer: 30.00 inHg , 1015.9 hPa
Clouds: Clear
Visibility: 10 miles , 16 km
2021/07/27 05:15 KDMW 270515Z AUTO 00000KT 10SM CLR 23/21 A3000 RMK AO2
 
KRSP - Camp David, Maryland, USA
Distance from station: SSW 46mi, 74km
Updated: Tue, 27-Jul-2021 12:54am EDT
Clear
Clear
 Wind from SW
Wind: SW 6 mph , 9 km/h
Temperature: 72°F , 22°C
Dew Point: 64°F , 18°C
Humidity: 78%
Barometer: 30.06 inHg , 1017.9 hPa
Clouds: Clear
Visibility: 10 miles , 16 km
2021/07/27 04:54 KRSP 270454Z AUTO 22005KT 10SM CLR 22/18 A3006 RMK AO2 SLP170 T02170178 402890200 TSNO PNO $